Twin Oaks (599, 859) Station Data

Red Flag Warning: No
Fire Weather Zone: 250
SDGE Region: North East
Lat/Lon: 33.194/-117.153

Observations

Time Wind Speed/Gust Temp(F) RH Fuel Moist Fuel Temp(F) Dewpt(F) Tmax(F) Tmin(F) Accum Precip 10-min Precip SL Press(mb)
3/29 8:00am 309 1 G 2 54° 57% - - 39° 59.3° 45.4° - - -
3/29 7:50am 344 2 G 4 52° 60% - - 38° 59.3° 45.4° - - -
3/29 7:40am 326 2 G 4 50° 61% - - 37° 59.3° 45.4° - - -
3/29 7:30am 349 1 G 2 50° 59% - - 36° 59.3° 45.4° - - -
3/29 7:20am 5 2 G 4 48° 63% - - 36° 59.3° 45.4° - - -
3/29 7:10am 328 2 G 3 46° 69% - - 37° 59.3° 45.4° - - -
3/29 7:00am 343 2 G 3 48° 62% - - 35° 59.3° 45.4° - - -
3/29 6:50am 326 1 G 3 46° 66% - - 36° 59.3° 45.4° - - -
3/29 6:40am 328 1 G 2 46° 67% - - 36° 59.3° 45.4° - - -
3/29 6:30am 320 1 G 2 46° 67% - - 36° 59.3° 45.4° - - -
3/29 6:20am 305 2 G 4 47° 68% - - 37° 59.3° 45.8° - - -
3/29 6:10am 360 1 G 2 46° 65% - - 35° 59.3° 45.8° - - -
3/29 6:00am 9 3 G 4 48° 62% - - 36° 59.3° 46.6° - - -
3/29 5:50am 6 2 G 3 48° 67% - - 37° 59.3° 46.8° - - -
3/29 5:40am 322 1 G 2 48° 70% - - 38° 59.3° 47.2° - - -
3/29 5:30am 333 1 G 2 48° 67% - - 38° 59.3° 47.4° - - -
3/29 5:20am 12 2 G 4 50° 64% - - 39° 59.3° 47.4° - - -
3/29 5:10am 29 1 G 3 49° 70% - - 39° 59.3° 47.4° - - -
3/29 5:00am 139 2 G 4 50° 65% - - 38° 59.3° 47.4° - - -
3/29 4:50am 307 3 G 5 58° 40% - - 33° 59.3° 47.4° - - -
3/29 4:40am 313 2 G 4 55° 50% - - 36° 57.6° 47.4° - - -
3/29 4:30am 314 2 G 4 52° 58% - - 38° 54.6° 47.4° - - -
3/29 4:20am 289 2 G 4 51° 64% - - 39° 54.5° 47.4° - - -
3/29 4:10am 334 1 G 4 50° 70% - - 41° 54.5° 47.4° - - -
3/29 4:00am 312 2 G 4 49° 72% - - 41° 54.5° 47.4° - - -
3/29 3:50am 324 2 G 4 48° 76% - - 41° 54.5° 47.4° - - -
3/29 3:40am 16 1 G 2 48° 74% - - 40° 54.5° 47.4° - - -
3/29 3:30am 255 1 G 2 51° 65% - - 40° 54.5° 47.6° - - -
3/29 3:20am 313 2 G 5 54° 60% - - 40° 54.5° 47.6° - - -
3/29 3:10am 316 2 G 4 53° 63% - - 41° 54.5° 47.6° - - -
3/29 3:00am 320 2 G 4 51° 69% - - 41° 52.8° 47.6° - - -
3/29 2:50am 323 3 G 4 49° 72% - - 41° 52.8° 47.6° - - -
3/29 2:40am 301 2 G 4 49° 74% - - 41° 52.8° 47.6° - - -
3/29 2:30am 350 1 G 2 49° 72% - - 40° 52.8° 47.6° - - -
3/29 2:20am 339 2 G 5 52° 67% - - 41° 52.8° 47.6° - - -
3/29 2:10am 355 3 G 4 50° 71% - - 41° 51.8° 47.6° - - -
3/29 2:00am 353 3 G 4 51° 70% - - 41° 51.8° 47.6° - - -
3/29 1:50am 323 3 G 4 49° 73% - - 41° 50.7° 47.6° - - -
3/29 1:40am 333 2 G 4 50° 71% - - 41° 50.7° 47.6° - - -
3/29 1:30am 337 2 G 4 49° 73% - - 41° 50.7° 47.6° - - -
3/29 1:20am 356 1 G 2 50° 70% - - 40° 50.7° 47.6° - - -
3/29 1:10am 337 1 G 3 49° 71% - - 41° 50.7° 47.6° - - -
3/29 1:00am 327 2 G 4 49° 71% - - 40° 50.7° 47.6° - - -
3/29 12:50am 353 2 G 3 50° 68% - - 40° 50.7° 47.6° - - -
3/29 12:40am 342 1 G 3 48° 73% - - 40° 50.3° 47.6° - - -
3/29 12:30am 324 1 G 2 48° 71% - - 39° 50.3° 47.6° - - -
3/29 12:20am 338 1 G 3 50° 69% - - 40° 50.3° 48.5° - - -
3/29 12:10am 337 2 G 4 49° 70% - - 40° 49.9° 48.5° - - -
3/29 12:00am 350 2 G 3 50° 68% - - 40° 70.4° 42.6° - - -
3/28 11:50pm 335 1 G 3 49° 71% - - 40° 70.4° 42.6° - - -
3/28 11:40pm 344 2 G 3 49° 69% - - 40° 70.4° 42.6° - - -
3/28 11:30pm 332 2 G 3 50° 69% - - 40° 70.4° 42.6° - - -
3/28 11:20pm 316 3 G 4 50° 67% - - 40° 70.4° 42.6° - - -
3/28 11:10pm 356 2 G 4 51° 66% - - 40° 70.4° 42.6° - - -
3/28 11:00pm 334 2 G 3 50° 67% - - 39° 70.4° 42.6° - - -
3/28 10:50pm 0 2 G 3 51° 64% - - 39° 70.4° 42.6° - - -
3/28 10:40pm 3 1 G 3 51° 64% - - 39° 70.4° 42.6° - - -
3/28 10:30pm 330 2 G 3 51° 65% - - 40° 70.4° 42.6° - - -
3/28 10:20pm 328 2 G 3 50° 67% - - 40° 70.4° 42.6° - - -
3/28 10:10pm 324 2 G 4 50° 66% - - 39° 70.4° 42.6° - - -
3/28 10:00pm 3 3 G 3 51° 64% - - 39° 70.4° 42.6° - - -
3/28 9:50pm 338 2 G 3 51° 66% - - 40° 70.4° 42.6° - - -
3/28 9:40pm 331 2 G 3 51° 68% - - 41° 70.4° 42.6° - - -
3/28 9:30pm 341 2 G 3 51° 64% - - 39° 70.4° 42.6° - - -
3/28 9:20pm 1 2 G 4 52° 61% - - 39° 70.4° 42.6° - - -
3/28 9:10pm 6 2 G 4 52° 62% - - 40° 70.4° 42.6° - - -
3/28 9:00pm 351 2 G 3 52° 64% - - 40° 70.4° 42.6° - - -
3/28 8:50pm 1 2 G 4 52° 64% - - 40° 70.4° 42.6° - - -
3/28 8:40pm 1 2 G 4 53° 63% - - 41° 70.4° 42.6° - - -
3/28 8:30pm 6 2 G 4 53° 62% - - 41° 70.4° 42.6° - - -
3/28 8:20pm 3 3 G 5 54° 61% - - 41° 70.4° 42.6° - - -
3/28 8:10pm 12 2 G 3 55° 58% - - 40° 70.4° 42.6° - - -
3/28 8:00pm 14 3 G 3 56° 56% - - 40° 70.4° 42.6° - - -
3/28 7:50pm 17 2 G 3 56° 55% - - 40° 70.4° 42.6° - - -
3/28 7:40pm 2 3 G 4 57° 53% - - 40° 70.4° 42.6° - - -
3/28 7:30pm 11 2 G 4 59° 50% - - 40° 70.4° 42.6° - - -
3/28 7:20pm 13 2 G 4 60° 48% - - 40° 70.4° 42.6° - - -
3/28 7:10pm 341 1 G 3 62° 43% - - 39° 70.4° 42.6° - - -
3/28 7:00pm 276 1 G 2 63° 40% - - 38° 70.4° 42.6° - - -
3/28 6:50pm 214 3 G 4 64° 38% - - 38° 70.4° 42.6° - - -
3/28 6:40pm 206 3 G 6 64° 37% - - 38° 70.4° 42.6° - - -
3/28 6:30pm 219 3 G 5 65° 33% - - 36° 70.4° 42.6° - - -
3/28 6:20pm 285 4 G 9 66° 31% - - 34° 70.4° 42.6° - - -
3/28 6:10pm 280 4 G 7 66° 31% - - 34° 70.4° 42.6° - - -
3/28 6:00pm 275 3 G 6 66° 32% - - 36° 70.4° 42.6° - - -
3/28 5:50pm 286 4 G 9 66° 33% - - 36° 70.4° 42.6° - - -
3/28 5:40pm 274 5 G 9 66° 34% - - 37° 70.4° 42.6° - - -
3/28 5:30pm 268 6 G 10 66° 35% - - 38° 70.4° 42.6° - - -
3/28 5:20pm 276 7 G 12 66° 35% - - 37° 70.4° 42.6° - - -
3/28 5:10pm 278 7 G 12 66° 35% - - 38° 70.4° 42.6° - - -
3/28 5:00pm 283 7 G 13 67° 35% - - 38° 70.4° 42.6° - - -
3/28 4:50pm 273 5 G 10 67° 37% - - 40° 70.4° 42.6° - - -
3/28 4:40pm 248 7 G 12 67° 35% - - 38° 70.4° 42.6° - - -
3/28 4:30pm 280 6 G 13 67° 32% - - 36° 70.4° 42.6° - - -
3/28 4:20pm 279 6 G 13 68° 33% - - 37° 70.4° 42.6° - - -
3/28 4:10pm 269 6 G 11 67° 34% - - 38° 70.4° 42.6° - - -
3/28 4:00pm 257 7 G 11 67° 33% - - 37° 70.4° 42.6° - - -
3/28 3:50pm 255 6 G 11 68° 33% - - 38° 70.4° 42.6° - - -
3/28 3:40pm 256 7 G 11 68° 34% - - 39° 70.4° 42.6° - - -
3/28 3:30pm 255 5 G 9 68° 39% - - 42° 70.4° 42.6° - - -
3/28 3:20pm 247 6 G 10 68° 41% - - 44° 70.4° 42.6° - - -
3/28 3:10pm 251 7 G 12 69° 42% - - 44° 70.4° 42.6° - - -
3/28 3:00pm 243 7 G 13 69° 38% - - 43° 70.4° 42.6° - - -
3/28 2:50pm 263 6 G 11 70° 35% - - 41° 70.4° 42.6° - - -
3/28 2:40pm 264 7 G 11 69° 38% - - 42° 70.4° 42.6° - - -
3/28 2:30pm 247 7 G 12 69° 39% - - 43° 70.4° 42.6° - - -
3/28 2:20pm 256 8 G 15 69° 40% - - 44° 70.4° 42.6° - - -
3/28 2:10pm 269 7 G 13 70° 38% - - 43° 70.4° 42.6° - - -
3/28 2:00pm 253 7 G 12 69° 40% - - 44° 70.4° 42.6° - - -
3/28 1:50pm 247 7 G 14 69° 40% - - 44° 70.4° 42.6° - - -
3/28 1:40pm 247 7 G 12 70° 41% - - 45° 70.4° 42.6° - - -
3/28 1:30pm 267 6 G 11 69° 41% - - 44° 69.8° 42.6° - - -
3/28 1:20pm 257 7 G 14 69° 45% - - 46° 69.8° 42.6° - - -
3/28 1:10pm 269 7 G 15 69° 40% - - 44° 69.8° 42.6° - - -
3/28 1:00pm 272 6 G 11 69° 38% - - 42° 69.8° 42.6° - - -
3/28 12:50pm 272 7 G 14 69° 38% - - 42° 69.3° 42.6° - - -
3/28 12:40pm 284 6 G 10 69° 34% - - 39° 69.1° 42.6° - - -
3/28 12:30pm 270 7 G 12 67° 43% - - 44° 69.1° 42.6° - - -
3/28 12:20pm 283 8 G 14 66° 46% - - 45° 69.1° 42.6° - - -
3/28 12:10pm 262 7 G 12 68° 43% - - 44° 69.1° 42.6° - - -
3/28 12:00pm 261 7 G 13 67° 39% - - 41° 69.1° 42.6° - - -
3/28 11:50am 292 7 G 14 68° 25% - - 30° 69.1° 42.6° - - -
3/28 11:40am 290 6 G 12 68° 22% - - 28° 68.7° 42.6° - - -
3/28 11:30am 299 8 G 15 68° 22% - - 27° 68.7° 42.6° - - -
3/28 11:20am 331 4 G 8 68° 23% - - 29° 68.6° 42.6° - - -
3/28 11:10am 339 4 G 10 68° 25% - - 31° 68.3° 42.6° - - -
3/28 11:00am 5 5 G 14 67° 26% - - 30° 67.3° 42.6° - - -
3/28 10:50am 5 4 G 10 67° 27% - - 32° 67.3° 42.6° - - -
3/28 10:40am 352 5 G 13 66° 28% - - 31° 66.3° 42.6° - - -
3/28 10:30am 13 8 G 15 65° 29% - - 32° 65.7° 42.6° - - -
3/28 10:20am 15 5 G 10 65° 30% - - 33° 65.6° 42.6° - - -
3/28 10:10am 17 3 G 9 65° 31% - - 34° 65.6° 42.6° - - -
3/28 10:00am 347 4 G 10 64° 33% - - 34° 64.6° 42.6° - - -
3/28 9:50am 358 4 G 9 63° 34% - - 34° 63.7° 42.6° - - -
3/28 9:40am 6 6 G 15 62° 34% - - 33° 62.7° 42.6° - - -
3/28 9:30am 346 4 G 10 61° 39% - - 36° 62.3° 42.6° - - -
3/28 9:20am 163 2 G 5 60° 55% - - 44° 60.3° 42.6° - - -
3/28 9:10am 158 3 G 5 58° 65% - - 46° 59.1° 42.6° - - -
3/28 9:00am 181 4 G 6 56° 70% - - 46° 56.9° 42.6° - - -
3/28 8:50am 181 2 G 4 55° 75% - - 47° 55.7° 42.6° - - -
3/28 8:40am 167 3 G 5 53° 79% - - 47° 54.3° 42.6° - - -
3/28 8:30am 180 3 G 6 53° 82% - - 47° 53.4° 42.6° - - -
3/28 8:20am 120 1 G 4 51° 86% - - 47° 52.5° 42.6° - - -
3/28 8:10am 150 3 G 5 49° 87% - - 46° 50.6° 42.6° - - -
3/28 8:00am 277 2 G 5 50° 98% - - 49° 50.6° 42.6° - - -
3/28 7:50am 291 2 G 4 48° 100% - - 48° 50° 42.6° - - -
3/28 7:40am 328 2 G 3 46° 100% - - 46° 50° 42.6° - - -
3/28 7:30am 337 1 G 3 46° 100% - - 46° 50° 42.6° - - -
3/28 7:20am 331 1 G 2 45° 100% - - 45° 50° 42.6° - - -
3/28 7:10am 341 2 G 4 45° 100% - - 45° 50° 42.6° - - -
3/28 7:00am 13 2 G 4 44° 100% - - 44° 50° 42.6° - - -
3/28 6:50am 295 2 G 4 44° 100% - - 44° 50° 42.6° - - -
3/28 6:40am 325 1 G 3 43° 100% - - 43° 50° 42.6° - - -
3/28 6:30am 327 2 G 3 44° 100% - - 44° 50° 43.6° - - -
3/28 6:20am 35 3 G 5 45° 100% - - 45° 50° 43.8° - - -
3/28 6:10am 353 3 G 5 44° 100% - - 44° 50° 43.8° - - -
3/28 6:00am 19 3 G 5 45° 100% - - 45° 50° 44.3° - - -